OIAI  Shahid Asyaee Airport

Add Bookmark

Iran

Status
Operational
Latitude Longitude
32° 0' 8" N 49° 16' 13" E
32.002399 49.270401
Local (DST + 5) UTC (GMT + 4)
Sep 16, 2014 03:55 Sep 16, 2014 11:25
Sunrise-Sunset Local UTC
Begin Civil Twilight 06:31 02:01
Sunrise 06:56 02:26
Sunset 07:19 14:49
End Civil Twilight 07:43 15:13

Current Weather

METAR Observed VFR
OIAI 160800Z 34006KT CAVOK 40/05 Q1004 Tue, Sep 16, 2014 @ 08:00 UTC
(3 Hours, 25 Minutes ago)
Visual Flight Rules
Wind Visibility Clouds Conditions
340° at 6 knots (11 kph) 10 km or more
  • Clear skies
  • No significant weather
Temperatures Readings Precipitation
Current Temp 40°C (104°F)
Dewpoint 5°C (41°F)
Humidity 12%
Altimeter 29.65"Hg
Sea Level Pressure 1004mb
Field Elevation 1220.47'
None Recorded

Additional weather within a 92.6km radius of OIAI

Map ICAO Location
OIAW 88.2km S (213°)

24 Hour Weather History

Loading
-

24 Hour Weather Graphs

Loading
-

CheckWX.com is intended as a tool to help pilots better visualize weather data. It is not intended as a substitute for an official weather briefing obtained from a Flight Service Station. CheckWX.com does not meet the FAA requirements for an official pre-flight weather briefing. Therefore, it's important that pilots still call and obtain an official FSS pre-flight weather briefing.